createdAt,value
2023-04-01T00:00:07.905Z,95.01
2023-04-01T00:01:11.110Z,95.67
2023-04-01T00:02:12.921Z,94.82
2023-04-01T00:03:14.870Z,94.89
2023-04-01T00:04:17.165Z,94.91
2023-04-01T00:05:18.955Z,94.44
2023-04-01T00:06:20.783Z,94.00
2023-04-01T00:07:22.569Z,94.55
2023-04-01T00:08:24.908Z,93.44
2023-04-01T00:09:26.722Z,93.63
2023-04-01T00:10:31.772Z,94.32
2023-04-01T00:11:33.959Z,93.59
2023-04-01T00:12:36.524Z,94.16
2023-04-01T00:13:38.371Z,94.94
2023-04-01T00:14:40.976Z,95.03
2023-04-01T00:15:42.949Z,96.08
2023-04-01T00:16:45.004Z,94.97
2023-04-01T00:17:46.907Z,94.33
2023-04-01T00:18:49.512Z,94.09
2023-04-01T00:19:51.362Z,93.83
2023-04-01T00:20:53.905Z,94.14
2023-04-01T00:21:55.782Z,94.36
2023-04-01T00:22:57.798Z,94.28
2023-04-01T00:24:00.442Z,94.53
2023-04-01T00:25:02.325Z,94.16
2023-04-01T00:26:04.353Z,94.29
2023-04-01T00:27:07.001Z,94.27
2023-04-01T00:28:08.910Z,93.64
2023-04-01T00:29:10.795Z,93.99
2023-04-01T00:30:12.829Z,93.53
2023-04-01T00:31:15.754Z,93.56
2023-04-01T00:32:17.976Z,94.62
2023-04-01T00:33:19.729Z,94.82
2023-04-01T00:34:21.703Z,94.67
2023-04-01T00:35:23.625Z,94.66
2023-04-01T00:36:25.372Z,95.24
2023-04-01T00:37:27.663Z,96.08
2023-04-01T00:38:29.470Z,96.33
2023-04-01T00:39:32.467Z,96.44
2023-04-01T00:40:38.405Z,96.85
2023-04-01T00:41:40.191Z,97.11
2023-04-01T00:42:42.019Z,96.34
2023-04-01T00:43:46.183Z,96.35
2023-04-01T00:44:55.136Z,96.52
2023-04-01T00:45:57.219Z,97.41
2023-04-01T00:46:59.005Z,96.87
2023-04-01T00:48:02.839Z,97.25
2023-04-01T00:49:04.590Z,97.06
2023-04-01T00:50:06.703Z,96.89
2023-04-01T00:51:15.380Z,97.28
2023-04-01T00:52:20.211Z,97.63
2023-04-01T00:53:22.794Z,96.85
2023-04-01T00:54:26.766Z,97.76
2023-04-01T00:55:31.505Z,97.20
2023-04-01T00:56:36.822Z,97.11
2023-04-01T00:57:38.925Z,97.42
2023-04-01T00:58:42.707Z,97.17
2023-04-01T00:59:46.285Z,97.09
2023-04-01T01:00:49.775Z,96.96
2023-04-01T01:01:51.661Z,97.22
2023-04-01T01:02:53.968Z,96.80
2023-04-01T01:03:55.797Z,97.71
2023-04-01T01:04:57.556Z,97.29
2023-04-01T01:06:05.321Z,97.32
2023-04-01T01:07:19.054Z,97.74
2023-04-01T01:08:41.116Z,97.40
2023-04-01T01:09:48.656Z,97.80
2023-04-01T01:10:51.351Z,97.58
2023-04-01T01:12:02.384Z,97.48
2023-04-01T01:13:10.139Z,96.55
2023-04-01T01:14:15.419Z,96.68
2023-04-01T01:15:26.491Z,96.20
2023-04-01T01:16:30.551Z,96.54
2023-04-01T01:17:44.582Z,96.12
2023-04-01T01:19:06.405Z,96.91
2023-04-01T01:20:27.056Z,97.04
2023-04-01T01:21:47.435Z,96.40
2023-04-01T01:23:07.610Z,97.56
2023-04-01T01:24:18.796Z,97.71
2023-04-01T01:25:21.167Z,97.79
2023-04-01T01:26:40.976Z,97.91
2023-04-01T01:27:46.242Z,97.60
2023-04-01T01:29:06.635Z,97.92
2023-04-01T01:30:17.340Z,98.09
2023-04-01T01:31:24.433Z,98.56
2023-04-01T01:32:46.634Z,98.32
2023-04-01T01:34:08.229Z,97.58
2023-04-01T01:35:15.696Z,97.06
2023-04-01T01:36:19.430Z,97.63
2023-04-01T01:37:23.498Z,98.04
2023-04-01T01:38:28.071Z,97.51
2023-04-01T01:39:32.892Z,97.86
2023-04-01T01:40:35.793Z,98.14
2023-04-01T01:41:38.957Z,97.70
2023-04-01T01:42:44.602Z,98.28
2023-04-01T01:43:49.764Z,98.32
2023-04-01T01:44:52.384Z,98.24
2023-04-01T01:45:56.829Z,97.82
2023-04-01T01:46:58.962Z,97.46
2023-04-01T01:48:02.289Z,98.09
2023-04-01T01:49:04.920Z,98.06
2023-04-01T01:50:07.480Z,97.75
2023-04-01T01:51:09.941Z,98.02
2023-04-01T01:52:12.598Z,97.52
2023-04-01T01:53:15.184Z,97.10
2023-04-01T01:54:18.032Z,98.02
2023-04-01T01:55:25.266Z,97.10
2023-04-01T01:56:28.376Z,97.37
2023-04-01T01:57:32.769Z,97.40
2023-04-01T01:58:41.589Z,97.60
2023-04-01T01:59:44.313Z,97.04
2023-04-01T02:00:49.842Z,97.37
2023-04-01T02:01:53.056Z,96.38
2023-04-01T02:02:55.169Z,96.41
2023-04-01T02:03:57.991Z,96.42
2023-04-01T02:05:00.623Z,95.87
2023-04-01T02:06:03.445Z,95.63
2023-04-01T02:07:07.660Z,95.83
2023-04-01T02:08:13.198Z,96.15
2023-04-01T02:09:15.411Z,95.99
2023-04-01T02:10:17.641Z,96.46
2023-04-01T02:11:21.252Z,95.66
2023-04-01T02:12:24.110Z,95.72
2023-04-01T02:13:32.699Z,96.11
2023-04-01T02:14:43.051Z,96.52
2023-04-01T02:15:48.392Z,96.10
2023-04-01T02:16:53.786Z,96.37
2023-04-01T02:17:58.232Z,96.71
2023-04-01T02:19:01.419Z,97.23
2023-04-01T02:20:06.632Z,97.04
2023-04-01T02:21:09.272Z,96.94
2023-04-01T02:22:13.998Z,97.31
2023-04-01T02:23:15.870Z,96.88
2023-04-01T02:24:17.698Z,96.80
2023-04-01T02:25:23.036Z,97.03
2023-04-01T02:26:26.889Z,96.38
2023-04-01T02:27:29.449Z,96.44
2023-04-01T02:28:32.699Z,96.91
2023-04-01T02:29:34.567Z,96.46
2023-04-01T02:30:38.158Z,96.38
2023-04-01T02:31:40.355Z,95.95
2023-04-01T02:32:42.810Z,96.58
2023-04-01T02:33:46.275Z,96.35
2023-04-01T02:34:49.461Z,96.12
2023-04-01T02:35:51.430Z,96.55
2023-04-01T02:36:54.541Z,97.45
2023-04-01T02:37:57.085Z,97.96
2023-04-01T02:39:03.303Z,98.06
2023-04-01T02:40:07.974Z,97.78
2023-04-01T02:41:09.837Z,98.05
2023-04-01T02:42:11.902Z,97.63
2023-04-01T02:43:13.968Z,97.83
2023-04-01T02:44:16.420Z,98.64
2023-04-01T02:45:18.272Z,98.44
2023-04-01T02:46:20.154Z,98.92
2023-04-01T02:47:21.983Z,98.63
2023-04-01T02:48:23.761Z,98.03
2023-04-01T02:49:25.623Z,97.90
2023-04-01T02:50:27.451Z,98.58
2023-04-01T02:51:30.305Z,98.49
2023-04-01T02:52:33.509Z,98.37
2023-04-01T02:53:36.060Z,98.39
2023-04-01T02:54:37.761Z,97.72
2023-04-01T02:55:39.597Z,97.74
2023-04-01T02:56:41.440Z,98.56
2023-04-01T02:57:43.192Z,97.78
2023-04-01T02:58:44.980Z,98.18
2023-04-01T02:59:46.898Z,97.98
2023-04-01T03:00:48.726Z,97.63
2023-04-01T03:01:50.564Z,97.42
2023-04-01T03:02:52.430Z,97.89
2023-04-01T03:03:54.312Z,97.38
2023-04-01T03:04:56.045Z,97.72
2023-04-01T03:05:59.955Z,97.20
2023-04-01T03:07:01.845Z,97.28
2023-04-01T03:08:03.990Z,97.99
2023-04-01T03:09:05.745Z,97.00
2023-04-01T03:10:08.178Z,96.86
2023-04-01T03:11:11.210Z,97.46
2023-04-01T03:12:13.155Z,96.82
2023-04-01T03:13:14.948Z,97.23
2023-04-01T03:14:16.874Z,96.30
2023-04-01T03:15:18.676Z,96.49
2023-04-01T03:16:20.526Z,96.49
2023-04-01T03:17:22.444Z,97.59
2023-04-01T03:18:24.263Z,97.61
2023-04-01T03:19:26.297Z,97.62
2023-04-01T03:20:28.049Z,98.15
2023-04-01T03:21:29.875Z,98.28
2023-04-01T03:22:31.920Z,98.03
2023-04-01T03:23:33.747Z,97.79
2023-04-01T03:24:35.553Z,97.96
2023-04-01T03:25:37.303Z,98.73
2023-04-01T03:26:39.322Z,98.81
2023-04-01T03:27:41.370Z,98.56
2023-04-01T03:28:43.222Z,97.46
2023-04-01T03:29:44.975Z,98.17
2023-04-01T03:30:46.775Z,98.41
2023-04-01T03:31:48.521Z,98.74
2023-04-01T03:32:50.669Z,98.87
2023-04-01T03:33:52.483Z,98.11
2023-04-01T03:34:54.211Z,98.08
2023-04-01T03:35:56.080Z,98.76
2023-04-01T03:36:58.383Z,98.70
2023-04-01T03:38:00.418Z,98.90
2023-04-01T03:39:02.276Z,99.26
2023-04-01T03:40:04.282Z,98.79
2023-04-01T03:41:06.270Z,99.25
2023-04-01T03:42:08.483Z,98.56
2023-04-01T03:43:11.274Z,99.48
2023-04-01T03:44:13.142Z,99.06
2023-04-01T03:45:14.939Z,98.99
2023-04-01T03:46:20.207Z,99.33
2023-04-01T03:47:22.297Z,99.20
2023-04-01T03:48:24.129Z,99.79
2023-04-01T03:49:26.264Z,99.15
2023-04-01T03:50:28.785Z,99.18
2023-04-01T03:51:31.888Z,99.38
2023-04-01T03:52:33.965Z,99.15
2023-04-01T03:53:35.854Z,99.23
2023-04-01T03:54:38.072Z,99.06
2023-04-01T03:55:40.807Z,98.55
2023-04-01T03:56:42.660Z,98.56
2023-04-01T03:57:44.481Z,98.62
2023-04-01T03:58:46.319Z,98.96
2023-04-01T03:59:48.065Z,99.10
2023-04-01T04:00:49.856Z,99.17
2023-04-01T04:01:51.774Z,98.63
2023-04-01T04:02:53.707Z,99.31
2023-04-01T04:03:55.711Z,98.36
2023-04-01T04:04:57.556Z,99.39
2023-04-01T04:05:59.371Z,99.13
2023-04-01T04:07:01.103Z,99.02
2023-04-01T04:08:02.945Z,98.71
2023-04-01T04:09:04.799Z,98.20
2023-04-01T04:10:07.052Z,98.58
2023-04-01T04:11:09.060Z,98.12
2023-04-01T04:12:10.774Z,98.48
2023-04-01T04:13:12.516Z,98.02
2023-04-01T04:14:14.294Z,97.99
2023-04-01T04:15:16.485Z,97.79
2023-04-01T04:16:18.685Z,97.54
2023-04-01T04:17:20.713Z,99.09
2023-04-01T04:18:22.462Z,99.20
2023-04-01T04:19:24.278Z,99.61
2023-04-01T04:20:26.077Z,99.78
2023-04-01T04:21:27.800Z,99.90
2023-04-01T04:22:29.586Z,99.77
2023-04-01T04:23:33.125Z,100.00
2023-04-01T04:24:37.850Z,99.12
2023-04-01T04:25:39.748Z,98.96
2023-04-01T04:26:41.594Z,98.88
2023-04-01T04:27:43.489Z,99.15
2023-04-01T04:28:45.411Z,99.30
2023-04-01T04:29:47.248Z,99.26
2023-04-01T04:30:48.982Z,99.24
2023-04-01T04:31:50.844Z,98.55
2023-04-01T04:32:52.689Z,99.09
2023-04-01T04:33:54.539Z,99.05
2023-04-01T04:34:56.364Z,99.17
2023-04-01T04:35:59.033Z,98.42
2023-04-01T04:37:01.245Z,98.71
2023-04-01T04:38:03.031Z,98.03
2023-04-01T04:39:04.804Z,98.22
2023-04-01T04:40:06.993Z,97.73
2023-04-01T04:41:13.887Z,97.89
2023-04-01T04:42:15.686Z,97.81
2023-04-01T04:43:18.312Z,97.80
2023-04-01T04:44:20.074Z,97.81
2023-04-01T04:45:21.962Z,97.60
2023-04-01T04:46:24.139Z,97.19
2023-04-01T04:47:25.996Z,97.19
2023-04-01T04:48:27.767Z,98.07
2023-04-01T04:49:29.523Z,97.49
2023-04-01T04:50:31.538Z,97.94
2023-04-01T04:51:37.009Z,96.92
2023-04-01T04:52:38.780Z,96.98
2023-04-01T04:53:40.692Z,97.83
2023-04-01T04:54:42.498Z,98.12
2023-04-01T04:55:50.533Z,97.19
2023-04-01T04:56:53.085Z,97.87
2023-04-01T04:57:55.284Z,97.37
2023-04-01T04:58:57.155Z,97.36
2023-04-01T04:59:58.948Z,97.71
2023-04-01T05:01:01.316Z,97.38
2023-04-01T05:02:03.177Z,97.51
2023-04-01T05:03:05.094Z,97.04
2023-04-01T05:04:07.297Z,96.71
2023-04-01T05:05:09.170Z,97.43
2023-04-01T05:06:11.723Z,97.30
2023-04-01T05:07:13.520Z,97.47
2023-04-01T05:08:15.293Z,97.85
2023-04-01T05:09:17.079Z,97.13
2023-04-01T05:10:18.894Z,97.90
2023-04-01T05:11:20.861Z,97.10
2023-04-01T05:12:22.652Z,97.80
2023-04-01T05:13:24.481Z,98.15
2023-04-01T05:14:26.226Z,97.83
2023-04-01T05:15:28.138Z,97.68
2023-04-01T05:16:30.051Z,97.16
2023-04-01T05:17:31.950Z,97.06
2023-04-01T05:18:33.861Z,97.47
2023-04-01T05:19:35.967Z,97.18
2023-04-01T05:20:37.835Z,96.02
2023-04-01T05:21:39.643Z,94.61
2023-04-01T05:22:41.475Z,94.58
2023-04-01T05:23:44.098Z,94.87
2023-04-01T05:24:48.463Z,94.83
2023-04-01T05:25:52.132Z,95.00
2023-04-01T05:26:55.841Z,94.34
2023-04-01T05:27:58.669Z,94.12
2023-04-01T05:29:00.589Z,94.03
2023-04-01T05:30:02.551Z,94.07
2023-04-01T05:31:04.620Z,94.54
2023-04-01T05:32:06.427Z,94.75
2023-04-01T05:33:08.333Z,95.21
2023-04-01T05:34:10.116Z,95.64
2023-04-01T05:35:11.999Z,95.06
2023-04-01T05:36:15.800Z,94.69
2023-04-01T05:37:17.847Z,93.98
2023-04-01T05:38:19.584Z,94.77
2023-04-01T05:39:21.600Z,94.95
2023-04-01T05:40:23.452Z,94.17
2023-04-01T05:41:25.768Z,94.00
2023-04-01T05:42:27.646Z,93.53
2023-04-01T05:43:29.430Z,93.21
2023-04-01T05:44:31.300Z,93.92
2023-04-01T05:45:33.243Z,93.93
2023-04-01T05:46:35.184Z,94.87
2023-04-01T05:47:37.013Z,95.60
2023-04-01T05:48:38.921Z,95.86
2023-04-01T05:49:41.290Z,95.66
2023-04-01T05:50:43.417Z,96.20
2023-04-01T05:51:45.217Z,96.07
2023-04-01T05:52:47.106Z,96.61
2023-04-01T05:53:48.940Z,96.10
2023-04-01T05:54:50.803Z,96.76
2023-04-01T05:55:52.630Z,95.72
2023-04-01T05:56:54.484Z,96.15
2023-04-01T05:57:56.332Z,96.05
2023-04-01T05:58:58.112Z,95.90
2023-04-01T05:59:59.864Z,95.82
2023-04-01T06:01:09.540Z,96.22
2023-04-01T06:02:13.093Z,94.93
2023-04-01T06:03:15.044Z,95.29
2023-04-01T06:04:18.294Z,95.13
2023-04-01T06:05:21.899Z,94.90
2023-04-01T06:06:30.207Z,94.47
2023-04-01T06:07:32.232Z,94.81
2023-04-01T06:08:34.070Z,94.09
2023-04-01T06:09:36.236Z,94.46
2023-04-01T06:10:44.456Z,94.80
2023-04-01T06:11:46.550Z,94.50
2023-04-01T06:12:54.356Z,94.70
2023-04-01T06:14:01.656Z,95.18
2023-04-01T06:15:12.263Z,94.94
2023-04-01T06:16:23.654Z,95.28
2023-04-01T06:17:28.622Z,95.48
2023-04-01T06:18:53.770Z,95.25
2023-04-01T06:20:28.257Z,95.62
2023-04-01T06:21:36.142Z,95.47
2023-04-01T06:22:56.425Z,94.46
2023-04-01T06:24:06.577Z,93.54
2023-04-01T06:25:17.161Z,93.63
2023-04-01T06:26:38.050Z,93.58
2023-04-01T06:27:52.450Z,92.22
2023-04-01T06:28:54.236Z,91.43
2023-04-01T06:29:56.289Z,89.10
2023-04-01T06:31:04.072Z,88.70
2023-04-01T06:32:05.992Z,88.46
2023-04-01T06:33:27.296Z,88.72
2023-04-01T06:34:31.980Z,88.79
2023-04-01T06:35:33.969Z,89.08
2023-04-01T06:37:05.260Z,89.71
2023-04-01T06:38:18.598Z,90.55
2023-04-01T06:39:29.438Z,91.03
2023-04-01T06:40:49.933Z,91.96
2023-04-01T06:42:10.489Z,92.53
2023-04-01T06:43:35.582Z,90.32
2023-04-01T06:44:49.922Z,90.35
2023-04-01T06:45:52.137Z,89.84
2023-04-01T06:47:01.192Z,88.04
2023-04-01T06:48:05.826Z,87.33
2023-04-01T06:49:27.884Z,88.45
2023-04-01T06:50:42.575Z,87.97
2023-04-01T06:51:46.925Z,87.82
2023-04-01T06:53:06.787Z,88.43
2023-04-01T06:54:11.560Z,87.35
2023-04-01T06:55:39.033Z,86.93
2023-04-01T06:56:43.942Z,85.96
2023-04-01T06:57:48.609Z,87.89
2023-04-01T06:59:05.672Z,87.52
2023-04-01T07:00:15.113Z,85.93
2023-04-01T07:01:35.562Z,84.96
2023-04-01T07:02:44.041Z,85.65
2023-04-01T07:03:57.268Z,86.64
2023-04-01T07:04:59.809Z,87.89
2023-04-01T07:06:05.108Z,88.58
2023-04-01T07:07:12.425Z,88.09
2023-04-01T07:08:23.851Z,89.00
2023-04-01T07:09:38.285Z,89.60
2023-04-01T07:10:49.603Z,89.58
2023-04-01T07:11:52.091Z,90.56
2023-04-01T07:12:56.433Z,90.11
2023-04-01T07:14:03.756Z,90.59
2023-04-01T07:15:13.202Z,90.05
2023-04-01T07:16:31.507Z,88.43
2023-04-01T07:17:36.859Z,88.44
2023-04-01T07:18:42.943Z,89.01
2023-04-01T07:20:20.179Z,87.46
2023-04-01T07:21:28.087Z,88.04
2023-04-01T07:22:36.463Z,87.95
2023-04-01T07:23:40.496Z,87.03
2023-04-01T07:24:43.811Z,87.68
2023-04-01T07:25:46.939Z,87.03
2023-04-01T07:26:51.572Z,87.25
2023-04-01T07:28:04.066Z,86.85
2023-04-01T07:29:07.189Z,85.96
2023-04-01T07:30:15.786Z,85.57
2023-04-01T07:31:37.798Z,86.36
2023-04-01T07:32:45.638Z,86.04
2023-04-01T07:33:53.936Z,85.35
2023-04-01T07:35:04.629Z,84.25
2023-04-01T07:36:35.558Z,84.30
2023-04-01T07:37:55.713Z,82.56
2023-04-01T07:39:11.702Z,84.54
2023-04-01T07:40:21.229Z,79.46
2023-04-01T07:41:29.895Z,77.22
2023-04-01T07:42:43.686Z,77.47
2023-04-01T07:44:00.648Z,77.18
2023-04-01T07:45:08.200Z,77.33
2023-04-01T07:46:27.839Z,77.98
2023-04-01T07:47:36.316Z,77.56
2023-04-01T07:48:50.545Z,78.13
2023-04-01T07:49:59.456Z,75.84
2023-04-01T07:51:01.304Z,75.04
2023-04-01T07:52:10.437Z,75.06
2023-04-01T07:53:30.465Z,76.93
2023-04-01T07:54:50.544Z,78.16
2023-04-01T07:55:55.326Z,78.35
2023-04-01T07:57:03.267Z,78.20
2023-04-01T07:58:15.919Z,76.65
2023-04-01T07:59:28.906Z,77.59
2023-04-01T08:00:30.688Z,76.59
2023-04-01T08:01:38.484Z,77.11
2023-04-01T08:02:49.150Z,78.73
2023-04-01T08:03:57.289Z,76.89
2023-04-01T08:05:05.452Z,78.35
2023-04-01T08:06:07.299Z,76.99
2023-04-01T08:07:17.221Z,76.19
2023-04-01T08:08:30.819Z,78.14
2023-04-01T08:09:38.728Z,75.16
2023-04-01T08:10:56.480Z,77.33
2023-04-01T08:11:59.479Z,79.34
2023-04-01T08:13:07.546Z,80.24
2023-04-01T08:14:12.271Z,80.96
2023-04-01T08:15:23.179Z,80.56
2023-04-01T08:16:33.396Z,81.42
2023-04-01T08:17:47.554Z,79.55
2023-04-01T08:18:55.351Z,78.02
2023-04-01T08:20:03.675Z,75.15
2023-04-01T08:21:11.589Z,71.43
2023-04-01T08:22:19.011Z,70.65
2023-04-01T08:23:23.842Z,72.43
2023-04-01T08:24:26.270Z,72.68
2023-04-01T08:25:33.487Z,74.28
2023-04-01T08:26:47.393Z,73.43
2023-04-01T08:27:52.586Z,73.66
2023-04-01T08:28:58.728Z,74.15
2023-04-01T08:30:19.305Z,74.30
2023-04-01T08:31:30.715Z,73.94
2023-04-01T08:32:42.833Z,75.10
2023-04-01T08:33:47.680Z,76.15
2023-04-01T08:34:54.436Z,76.37
2023-04-01T08:35:59.925Z,76.49
2023-04-01T08:37:05.015Z,77.41
2023-04-01T08:38:19.659Z,78.07
2023-04-01T08:39:24.220Z,77.19
2023-04-01T08:40:36.986Z,77.05
2023-04-01T08:42:17.472Z,78.36
2023-04-01T08:43:51.512Z,77.52
2023-04-01T08:45:02.341Z,73.90
2023-04-01T08:46:04.890Z,72.86
2023-04-01T08:47:09.788Z,74.77
2023-04-01T08:48:14.264Z,74.44
2023-04-01T08:49:16.118Z,74.63
2023-04-01T08:50:27.907Z,75.78
2023-04-01T08:51:44.603Z,73.77
2023-04-01T08:53:08.026Z,73.64
2023-04-01T08:54:27.158Z,74.57
2023-04-01T08:55:36.270Z,72.13
2023-04-01T08:56:37.983Z,71.59
2023-04-01T08:57:52.658Z,68.76
2023-04-01T08:58:58.629Z,69.53
2023-04-01T09:00:06.524Z,70.14
2023-04-01T09:01:14.053Z,71.88
2023-04-01T09:02:34.461Z,72.38
2023-04-01T09:03:39.857Z,72.62
2023-04-01T09:04:53.637Z,71.63
2023-04-01T09:06:01.235Z,72.08
2023-04-01T09:07:14.806Z,69.80
2023-04-01T09:08:22.137Z,71.77
2023-04-01T09:09:26.622Z,71.66
2023-04-01T09:10:31.338Z,72.67
2023-04-01T09:11:45.295Z,73.42
2023-04-01T09:13:05.954Z,73.65
2023-04-01T09:14:22.982Z,69.51
2023-04-01T09:15:43.037Z,69.37
2023-04-01T09:16:57.371Z,70.72
2023-04-01T09:18:04.762Z,71.64
2023-04-01T09:19:10.073Z,72.54
2023-04-01T09:20:20.306Z,73.62
2023-04-01T09:21:40.857Z,74.11
2023-04-01T09:22:42.667Z,72.59
2023-04-01T09:24:03.110Z,70.19
2023-04-01T09:25:07.778Z,71.30
2023-04-01T09:26:09.510Z,69.36
2023-04-01T09:27:11.245Z,69.66
2023-04-01T09:28:13.173Z,69.57
2023-04-01T09:29:33.093Z,68.55
2023-04-01T09:30:42.701Z,68.30
2023-04-01T09:31:44.453Z,67.92
2023-04-01T09:33:06.557Z,67.07
2023-04-01T09:34:08.369Z,67.57
2023-04-01T09:35:22.895Z,66.69
2023-04-01T09:36:50.603Z,66.91
2023-04-01T09:37:58.215Z,69.69
2023-04-01T09:39:04.898Z,68.90
2023-04-01T09:40:15.497Z,69.56
2023-04-01T09:41:26.518Z,68.41
2023-04-01T09:42:43.843Z,67.04
2023-04-01T09:43:54.238Z,66.49
2023-04-01T09:44:56.100Z,67.49
2023-04-01T09:46:01.054Z,68.38
2023-04-01T09:47:06.068Z,69.38
2023-04-01T09:48:21.020Z,70.27
2023-04-01T09:49:22.764Z,68.50
2023-04-01T09:50:24.510Z,67.87
2023-04-01T09:51:29.381Z,68.69
2023-04-01T09:52:39.860Z,70.26
2023-04-01T09:53:53.923Z,70.73
2023-04-01T09:55:01.639Z,71.40
2023-04-01T09:56:04.833Z,72.15
2023-04-01T09:57:25.173Z,71.92
2023-04-01T09:58:53.204Z,71.84
2023-04-01T09:59:55.559Z,71.91
2023-04-01T10:01:16.205Z,71.89
2023-04-01T10:02:27.469Z,71.62
2023-04-01T10:03:44.307Z,72.73
2023-04-01T10:04:49.117Z,71.65
2023-04-01T10:05:59.843Z,72.24
2023-04-01T10:07:20.419Z,71.84
2023-04-01T10:08:33.970Z,71.98
2023-04-01T10:09:54.611Z,71.58
2023-04-01T10:11:15.082Z,70.84
2023-04-01T10:12:28.655Z,70.28
2023-04-01T10:13:33.520Z,71.24
2023-04-01T10:15:01.544Z,71.29
2023-04-01T10:16:03.457Z,70.43
2023-04-01T10:17:17.735Z,71.08
2023-04-01T10:18:25.697Z,70.97
2023-04-01T10:19:36.700Z,69.94
2023-04-01T10:20:57.294Z,71.23
2023-04-01T10:22:17.937Z,70.58
2023-04-01T10:23:23.420Z,70.83
2023-04-01T10:24:43.638Z,71.33
2023-04-01T10:25:57.492Z,70.91
2023-04-01T10:27:11.569Z,71.41
2023-04-01T10:28:31.796Z,72.19
2023-04-01T10:29:45.590Z,71.30
2023-04-01T10:30:56.512Z,71.29
2023-04-01T10:32:26.419Z,70.36
2023-04-01T10:33:33.988Z,70.62
2023-04-01T10:34:35.734Z,70.46
2023-04-01T10:35:50.247Z,70.40
2023-04-01T10:36:53.930Z,70.51
2023-04-01T10:38:14.206Z,71.01
2023-04-01T10:39:22.627Z,71.76
2023-04-01T10:40:26.531Z,69.78
2023-04-01T10:41:43.249Z,68.77
2023-04-01T10:42:56.368Z,69.36
2023-04-01T10:44:14.080Z,69.87
2023-04-01T10:45:15.984Z,68.96
2023-04-01T10:46:36.331Z,68.36
2023-04-01T10:47:41.837Z,68.52
2023-04-01T10:49:02.291Z,68.75
2023-04-01T10:50:06.838Z,68.72
2023-04-01T10:51:35.174Z,68.49
2023-04-01T10:52:55.777Z,68.52
2023-04-01T10:54:06.600Z,68.89
2023-04-01T10:55:27.129Z,68.95
2023-04-01T10:56:31.715Z,68.50
2023-04-01T10:57:36.655Z,68.53
2023-04-01T10:58:47.365Z,68.75
2023-04-01T11:00:08.571Z,67.03
2023-04-01T11:01:25.675Z,64.32
2023-04-01T11:02:46.415Z,66.03
2023-04-01T11:04:06.134Z,66.78
2023-04-01T11:05:37.460Z,67.40
2023-04-01T11:06:42.057Z,68.84
2023-04-01T11:08:11.588Z,69.27
2023-04-01T11:09:32.213Z,69.13
2023-04-01T11:10:52.636Z,63.88
2023-04-01T11:12:09.629Z,62.49
2023-04-01T11:13:17.704Z,65.64
2023-04-01T11:14:22.388Z,67.24
2023-04-01T11:15:27.206Z,68.20
2023-04-01T11:16:47.681Z,65.15
2023-04-01T11:18:01.434Z,61.57
2023-04-01T11:19:06.276Z,63.03
2023-04-01T11:20:34.420Z,62.90
2023-04-01T11:21:55.039Z,62.56
2023-04-01T11:23:15.321Z,62.94
2023-04-01T11:24:26.184Z,63.57
2023-04-01T11:25:57.263Z,63.57
2023-04-01T11:27:05.201Z,63.50
2023-04-01T11:28:09.702Z,62.94
2023-04-01T11:29:38.922Z,64.56
2023-04-01T11:30:55.643Z,64.28
2023-04-01T11:32:17.774Z,66.01
2023-04-01T11:33:24.097Z,64.32
2023-04-01T11:34:41.222Z,64.68
2023-04-01T11:36:01.310Z,62.95
2023-04-01T11:37:18.462Z,63.39
2023-04-01T11:38:30.713Z,64.55
2023-04-01T11:39:35.843Z,64.07
2023-04-01T11:40:43.588Z,63.77
2023-04-01T11:42:05.613Z,65.20
2023-04-01T11:43:33.046Z,65.81
2023-04-01T11:44:41.211Z,65.38
2023-04-01T11:45:53.098Z,65.85
2023-04-01T11:47:06.690Z,65.96
2023-04-01T11:48:23.481Z,66.64
2023-04-01T11:49:38.375Z,67.84
2023-04-01T11:50:55.467Z,69.98
2023-04-01T11:52:16.195Z,70.46
2023-04-01T11:53:36.840Z,73.74
2023-04-01T11:54:52.397Z,73.56
2023-04-01T11:55:57.133Z,74.54
2023-04-01T11:56:58.975Z,76.34
2023-04-01T11:58:27.120Z,74.99
2023-04-01T11:59:47.727Z,75.46
2023-04-01T12:00:52.704Z,71.99
2023-04-01T12:02:01.008Z,71.50
2023-04-01T12:03:21.474Z,69.88
2023-04-01T12:04:35.333Z,70.96
2023-04-01T12:05:47.419Z,69.80
2023-04-01T12:07:01.158Z,65.49
2023-04-01T12:08:14.531Z,68.22
2023-04-01T12:09:25.255Z,65.28
2023-04-01T12:10:39.080Z,64.72
2023-04-01T12:11:46.877Z,63.95
2023-04-01T12:13:02.113Z,64.20
2023-04-01T12:14:10.640Z,60.86
2023-04-01T12:15:24.387Z,61.92
2023-04-01T12:16:26.331Z,63.10
2023-04-01T12:17:46.579Z,62.79
2023-04-01T12:18:48.362Z,62.82
2023-04-01T12:19:56.529Z,62.79
2023-04-01T12:21:15.830Z,64.29
2023-04-01T12:22:32.553Z,63.98
2023-04-01T12:23:38.296Z,63.01
2023-04-01T12:24:43.032Z,61.55
2023-04-01T12:26:05.964Z,59.85
2023-04-01T12:27:26.350Z,58.49
2023-04-01T12:28:37.256Z,59.85
2023-04-01T12:29:39.048Z,60.27
2023-04-01T12:30:53.020Z,60.07
2023-04-01T12:31:54.873Z,60.60
2023-04-01T12:32:57.098Z,60.39
2023-04-01T12:34:01.971Z,61.09
2023-04-01T12:35:16.014Z,60.22
2023-04-01T12:36:20.952Z,58.33
2023-04-01T12:37:38.011Z,57.93
2023-04-01T12:38:58.527Z,62.23
2023-04-01T12:40:08.814Z,59.01
2023-04-01T12:41:11.552Z,58.56
2023-04-01T12:42:13.360Z,56.33
2023-04-01T12:43:35.322Z,56.55
2023-04-01T12:44:39.884Z,59.19
2023-04-01T12:46:00.628Z,59.66
2023-04-01T12:47:11.532Z,56.88
2023-04-01T12:48:19.477Z,56.83
2023-04-01T12:49:29.390Z,57.28
2023-04-01T12:50:31.155Z,59.35
2023-04-01T12:51:51.091Z,55.58
2023-04-01T12:53:04.466Z,55.27
2023-04-01T12:54:15.462Z,57.13
2023-04-01T12:55:20.753Z,54.40
2023-04-01T12:56:41.264Z,54.53
2023-04-01T12:57:54.979Z,56.41
2023-04-01T12:59:08.947Z,58.19
2023-04-01T13:00:16.901Z,52.45
2023-04-01T13:01:37.424Z,55.83
2023-04-01T13:02:47.562Z,52.73
2023-04-01T13:03:58.224Z,53.56
2023-04-01T13:05:16.778Z,54.13
2023-04-01T13:06:21.549Z,51.98
2023-04-01T13:07:35.656Z,51.34
2023-04-01T13:08:41.571Z,49.28
2023-04-01T13:10:01.434Z,50.79
2023-04-01T13:11:29.124Z,51.83
2023-04-01T13:12:33.895Z,52.90
2023-04-01T13:13:46.236Z,52.81
2023-04-01T13:15:12.950Z,52.71
2023-04-01T13:16:25.616Z,53.23
2023-04-01T13:17:35.790Z,54.57
2023-04-01T13:18:56.375Z,54.79
2023-04-01T13:20:18.752Z,55.31
2023-04-01T13:21:28.551Z,55.47
2023-04-01T13:22:36.441Z,56.15
2023-04-01T13:23:56.596Z,55.00
2023-04-01T13:25:12.225Z,57.19
2023-04-01T13:26:26.072Z,57.66
2023-04-01T13:27:51.064Z,59.94
2023-04-01T13:29:09.085Z,57.70
2023-04-01T13:30:29.219Z,58.99
2023-04-01T13:31:37.932Z,59.64
2023-04-01T13:32:49.447Z,60.53
2023-04-01T13:34:10.169Z,60.69
2023-04-01T13:35:17.720Z,61.66
2023-04-01T13:36:24.707Z,62.52
2023-04-01T13:37:45.534Z,62.92
2023-04-01T13:38:47.342Z,65.63
2023-04-01T13:39:49.196Z,60.26
2023-04-01T13:41:02.426Z,60.67
2023-04-01T13:42:08.563Z,57.60
2023-04-01T13:43:15.162Z,59.47
2023-04-01T13:44:37.184Z,59.25
2023-04-01T13:45:57.058Z,59.58
2023-04-01T13:47:22.073Z,60.08
2023-04-01T13:48:23.915Z,60.14
2023-04-01T13:49:43.209Z,59.01
2023-04-01T13:50:57.212Z,57.92
2023-04-01T13:52:05.267Z,57.74
2023-04-01T13:53:16.104Z,57.00
2023-04-01T13:54:33.098Z,57.88
2023-04-01T13:55:35.363Z,56.11
2023-04-01T13:56:43.216Z,53.03
2023-04-01T13:57:56.084Z,55.92
2023-04-01T13:59:16.577Z,52.35
2023-04-01T14:00:24.843Z,50.19
2023-04-01T14:01:36.941Z,48.46
2023-04-01T14:02:57.858Z,49.36
2023-04-01T14:04:21.945Z,51.49
2023-04-01T14:05:43.217Z,50.89
2023-04-01T14:07:09.822Z,52.12
2023-04-01T14:08:34.799Z,50.47
2023-04-01T14:10:01.688Z,51.09
2023-04-01T14:11:06.525Z,54.16
2023-04-01T14:12:14.490Z,53.03
2023-04-01T14:13:25.610Z,52.55
2023-04-01T14:14:30.243Z,54.19
2023-04-01T14:15:32.375Z,54.37
2023-04-01T14:17:02.082Z,52.65
2023-04-01T14:18:22.511Z,53.63
2023-04-01T14:19:39.643Z,54.31
2023-04-01T14:20:44.552Z,54.61
2023-04-01T14:22:05.188Z,55.92
2023-04-01T14:23:25.825Z,57.03
2023-04-01T14:24:37.660Z,54.59
2023-04-01T14:25:57.932Z,53.17
2023-04-01T14:26:59.637Z,54.05
2023-04-01T14:28:04.227Z,57.11
2023-04-01T14:29:09.154Z,57.35
2023-04-01T14:30:23.201Z,57.83
2023-04-01T14:31:30.732Z,58.21
2023-04-01T14:32:40.834Z,59.94
2023-04-01T14:33:45.696Z,59.94
2023-04-01T14:34:47.497Z,60.38
2023-04-01T14:35:49.202Z,60.50
2023-04-01T14:36:51.547Z,62.74
2023-04-01T14:38:02.517Z,62.61